createdAt,value
2023-03-07T00:01:29.127Z,93438
2023-03-07T00:04:54.293Z,93445
2023-03-07T00:08:19.439Z,93437
2023-03-07T00:11:44.614Z,93439
2023-03-07T00:15:09.802Z,93442
2023-03-07T00:18:34.932Z,93443
2023-03-07T00:22:00.117Z,93432
2023-03-07T00:25:25.323Z,93435
2023-03-07T00:28:50.482Z,93433
2023-03-07T00:32:15.736Z,93423
2023-03-07T00:35:40.821Z,93432
2023-03-07T00:39:05.983Z,93431
2023-03-07T00:42:31.150Z,93423
2023-03-07T00:45:56.375Z,93414
2023-03-07T00:49:21.507Z,93404
2023-03-07T00:52:46.638Z,93401
2023-03-07T00:56:11.801Z,93403
2023-03-07T00:59:36.958Z,93392
2023-03-07T01:03:02.103Z,93379
2023-03-07T01:06:27.299Z,93387
2023-03-07T01:09:52.396Z,93373
2023-03-07T01:13:17.586Z,93368
2023-03-07T01:16:42.900Z,93371
2023-03-07T01:20:07.941Z,93358
2023-03-07T01:23:33.149Z,93355
2023-03-07T01:26:58.288Z,93346
2023-03-07T01:30:23.448Z,93337
2023-03-07T01:33:48.618Z,93331
2023-03-07T01:37:13.801Z,93345
2023-03-07T01:40:38.961Z,93344
2023-03-07T01:44:04.102Z,93347
2023-03-07T01:47:29.268Z,93332
2023-03-07T01:50:54.416Z,93330
2023-03-07T01:54:19.582Z,93328
2023-03-07T01:57:44.760Z,93320
2023-03-07T02:01:10.006Z,93303
2023-03-07T02:04:35.122Z,93298
2023-03-07T02:08:00.268Z,93300
2023-03-07T02:11:25.446Z,93290
2023-03-07T02:14:50.767Z,93283
2023-03-07T02:18:15.831Z,93276
2023-03-07T02:21:41.023Z,93266
2023-03-07T02:25:06.188Z,93250
2023-03-07T02:28:31.397Z,93261
2023-03-07T02:31:56.620Z,93255
2023-03-07T02:35:21.776Z,93257
2023-03-07T02:38:46.981Z,93258
2023-03-07T02:42:12.182Z,93245
2023-03-07T02:45:37.362Z,93251
2023-03-07T02:49:02.587Z,93242
2023-03-07T02:52:27.761Z,93244
2023-03-07T02:55:53.921Z,93245
2023-03-07T02:59:19.130Z,93241
2023-03-07T03:02:44.340Z,93240
2023-03-07T03:06:09.542Z,93236
2023-03-07T03:09:34.731Z,93228
2023-03-07T03:12:59.919Z,93227
2023-03-07T03:16:25.128Z,93230
2023-03-07T03:19:50.290Z,93219
2023-03-07T03:23:15.508Z,93225
2023-03-07T03:26:40.663Z,93228
2023-03-07T03:30:05.899Z,93232
2023-03-07T03:33:31.101Z,93225
2023-03-07T03:36:56.324Z,93220
2023-03-07T03:40:21.607Z,93227
2023-03-07T03:43:46.707Z,93226
2023-03-07T03:47:11.877Z,93227
2023-03-07T03:50:37.073Z,93226
2023-03-07T03:54:02.255Z,93231
2023-03-07T03:57:27.594Z,93224
2023-03-07T04:00:52.650Z,93219
2023-03-07T04:04:17.873Z,93209
2023-03-07T04:07:43.072Z,93207
2023-03-07T04:11:08.266Z,93194
2023-03-07T04:14:33.485Z,93195
2023-03-07T04:17:58.691Z,93184
2023-03-07T04:21:23.869Z,93188
2023-03-07T04:24:49.051Z,93180
2023-03-07T04:28:14.299Z,93171
2023-03-07T04:31:39.554Z,93161
2023-03-07T04:35:04.687Z,93163
2023-03-07T04:38:29.996Z,93167
2023-03-07T04:41:55.142Z,93161
2023-03-07T04:45:20.326Z,93158
2023-03-07T04:48:45.560Z,93165
2023-03-07T04:52:10.730Z,93171
2023-03-07T04:55:35.916Z,93164
2023-03-07T04:59:01.124Z,93157
2023-03-07T05:02:26.344Z,93164
2023-03-07T05:05:51.578Z,93164
2023-03-07T05:09:16.754Z,93158
2023-03-07T05:12:41.975Z,93148
2023-03-07T05:16:07.244Z,93169
2023-03-07T05:19:32.408Z,93160
2023-03-07T05:22:57.644Z,93163
2023-03-07T05:26:22.795Z,93164
2023-03-07T05:29:48.010Z,93155
2023-03-07T05:33:13.257Z,93157
2023-03-07T05:36:38.491Z,93154
2023-03-07T05:40:03.749Z,93160
2023-03-07T05:43:28.927Z,93157
2023-03-07T05:46:54.138Z,93171
2023-03-07T05:50:19.350Z,93156
2023-03-07T05:53:44.565Z,93161
2023-03-07T05:57:09.806Z,93160
2023-03-07T06:00:35.007Z,93156
2023-03-07T06:04:00.256Z,93156
2023-03-07T06:07:25.416Z,93152
2023-03-07T06:10:50.767Z,93155
2023-03-07T06:14:15.873Z,93160
2023-03-07T06:17:41.024Z,93148
2023-03-07T06:21:06.228Z,93149
2023-03-07T06:24:31.421Z,93150
2023-03-07T06:27:56.584Z,93150
2023-03-07T06:31:21.869Z,93155
2023-03-07T06:34:47.044Z,93151
2023-03-07T06:38:12.233Z,93161
2023-03-07T06:41:37.420Z,93155
2023-03-07T06:45:02.618Z,93157
2023-03-07T06:48:27.816Z,93147
2023-03-07T06:51:52.969Z,93153
2023-03-07T06:55:18.177Z,93160
2023-03-07T06:58:43.349Z,93160
2023-03-07T07:02:08.667Z,93155
2023-03-07T07:05:33.752Z,93157
2023-03-07T07:08:58.926Z,93156
2023-03-07T07:12:24.087Z,93150
2023-03-07T07:15:49.294Z,93153
2023-03-07T07:19:14.492Z,93156
2023-03-07T07:22:39.730Z,93155
2023-03-07T07:26:04.932Z,93152
2023-03-07T07:29:30.127Z,93152
2023-03-07T07:32:55.453Z,93147
2023-03-07T07:36:22.647Z,93151
2023-03-07T07:39:45.778Z,93148
2023-03-07T07:43:10.969Z,93148
2023-03-07T07:46:36.166Z,93146
2023-03-07T07:50:01.407Z,93145
2023-03-07T07:53:26.619Z,93137
2023-03-07T07:56:51.850Z,93139
2023-03-07T08:00:17.046Z,93138
2023-03-07T08:03:42.347Z,93136
2023-03-07T08:07:07.652Z,93122
2023-03-07T08:10:33.282Z,93127
2023-03-07T08:13:58.581Z,93117
2023-03-07T08:17:23.643Z,93117
2023-03-07T08:20:48.858Z,93118
2023-03-07T08:24:14.093Z,93111
2023-03-07T08:27:39.335Z,93121
2023-03-07T08:31:04.713Z,93113
2023-03-07T08:34:29.789Z,93121
2023-03-07T08:37:55.067Z,93120
2023-03-07T08:41:20.257Z,93107
2023-03-07T08:44:45.540Z,93116
2023-03-07T08:48:10.792Z,93118
2023-03-07T08:51:35.945Z,93107
2023-03-07T08:55:01.157Z,93118
2023-03-07T08:58:26.394Z,93116
2023-03-07T09:01:51.617Z,93128
2023-03-07T09:05:16.876Z,93117
2023-03-07T09:08:42.035Z,93128
2023-03-07T09:12:07.245Z,93128
2023-03-07T09:15:32.455Z,93123
2023-03-07T09:18:57.670Z,93136
2023-03-07T09:22:22.884Z,93125
2023-03-07T09:25:48.110Z,93126
2023-03-07T09:29:13.286Z,93127
2023-03-07T09:32:38.597Z,93115
2023-03-07T09:36:03.774Z,93120
2023-03-07T09:39:28.960Z,93108
2023-03-07T09:42:54.141Z,93106
2023-03-07T09:46:19.334Z,93107
2023-03-07T09:49:44.553Z,93116
2023-03-07T09:53:09.767Z,93114
2023-03-07T09:56:35.026Z,93116
2023-03-07T10:00:00.167Z,93110
2023-03-07T10:03:25.404Z,93098
2023-03-07T10:06:50.590Z,93096
2023-03-07T10:10:15.787Z,93094
2023-03-07T10:13:41.071Z,93098
2023-03-07T10:17:06.256Z,93097
2023-03-07T10:20:31.475Z,93102
2023-03-07T10:23:56.718Z,93105
2023-03-07T10:27:21.911Z,93097
2023-03-07T10:30:47.122Z,93093
2023-03-07T10:34:19.905Z,93100
2023-03-07T10:37:37.545Z,93098
2023-03-07T10:41:02.762Z,93092
2023-03-07T10:44:27.961Z,93093
2023-03-07T10:47:53.203Z,93077
2023-03-07T10:51:18.364Z,93078
2023-03-07T10:54:43.654Z,93078
2023-03-07T10:58:08.847Z,93064
2023-03-07T11:01:34.076Z,93078
2023-03-07T11:04:59.320Z,93064
2023-03-07T11:08:24.442Z,93064
2023-03-07T11:11:49.676Z,93055
2023-03-07T11:15:14.909Z,93052
2023-03-07T11:18:40.119Z,93044
2023-03-07T11:22:05.359Z,93041
2023-03-07T11:25:30.544Z,93041
2023-03-07T11:28:55.758Z,93047
2023-03-07T11:32:21.095Z,93041
2023-03-07T11:35:46.290Z,93035
2023-03-07T11:39:11.425Z,93028
2023-03-07T11:42:36.743Z,93021
2023-03-07T11:46:02.001Z,93017
2023-03-07T11:49:27.172Z,93016
2023-03-07T11:52:52.435Z,93013
2023-03-07T11:56:17.691Z,93017
2023-03-07T11:59:43.014Z,93000
2023-03-07T12:03:08.268Z,93004
2023-03-07T12:06:33.441Z,93008
2023-03-07T12:09:58.686Z,93005
2023-03-07T12:13:23.933Z,93007
2023-03-07T12:16:49.116Z,93011
2023-03-07T12:20:14.502Z,93000
2023-03-07T12:23:39.572Z,93004
2023-03-07T12:27:04.770Z,93002
2023-03-07T12:30:30.024Z,92996
2023-03-07T12:33:55.412Z,92997
2023-03-07T12:37:20.653Z,92987
2023-03-07T12:40:45.827Z,92976
2023-03-07T12:44:11.045Z,92975
2023-03-07T12:47:36.269Z,92971
2023-03-07T12:51:01.445Z,92974
2023-03-07T12:54:26.639Z,92978
2023-03-07T12:57:51.845Z,92980
2023-03-07T13:01:17.184Z,92983
2023-03-07T13:04:42.284Z,92976
2023-03-07T13:08:07.437Z,92977
2023-03-07T13:11:32.752Z,92984
2023-03-07T13:14:57.865Z,92980
2023-03-07T13:18:23.072Z,92975
2023-03-07T13:21:48.289Z,92975
2023-03-07T13:25:13.477Z,92979
2023-03-07T13:28:38.690Z,92971
2023-03-07T13:32:03.970Z,92976
2023-03-07T13:35:29.295Z,92966
2023-03-07T13:38:54.472Z,92967
2023-03-07T13:42:19.575Z,92956
2023-03-07T13:45:44.784Z,92953
2023-03-07T13:49:10.015Z,92950
2023-03-07T13:52:35.223Z,92952
2023-03-07T13:56:00.500Z,92956
2023-03-07T13:59:25.826Z,92949
2023-03-07T14:02:51.190Z,92947
2023-03-07T14:06:16.461Z,92949
2023-03-07T14:09:41.771Z,92945
2023-03-07T14:13:07.019Z,92939
2023-03-07T14:16:32.202Z,92944
2023-03-07T14:19:57.430Z,92946
2023-03-07T14:23:22.591Z,92942
2023-03-07T14:26:47.815Z,92933
2023-03-07T14:30:13.103Z,92940
2023-03-07T15:06:12.074Z,92943
2023-03-07T15:09:37.258Z,92952
2023-03-07T15:13:02.492Z,92950
2023-03-07T15:16:28.330Z,92948
2023-03-07T15:19:53.562Z,92945
2023-03-07T15:23:18.834Z,92937
2023-03-07T15:26:44.051Z,92943
2023-03-07T15:30:09.319Z,92935
2023-03-07T15:33:34.595Z,92938
2023-03-07T15:36:59.834Z,92941
2023-03-07T15:40:25.248Z,92945
2023-03-07T15:43:50.327Z,92937
2023-03-07T15:47:15.569Z,92946
2023-03-07T15:50:40.953Z,92934
2023-03-07T15:54:06.072Z,92945
2023-03-07T15:57:31.359Z,92942
2023-03-07T16:00:56.579Z,92935
2023-03-07T16:04:21.803Z,92939
2023-03-07T16:07:47.049Z,92952
2023-03-07T16:11:15.882Z,92949
2023-03-07T16:14:40.079Z,92947
2023-03-07T16:18:05.268Z,92943
2023-03-07T16:21:30.475Z,92951
2023-03-07T16:24:55.682Z,92953
2023-03-07T16:28:20.892Z,92949
2023-03-07T16:31:46.225Z,92952
2023-03-07T16:35:11.314Z,92960
2023-03-07T16:38:36.618Z,92964
2023-03-07T16:42:01.886Z,92959
2023-03-07T16:45:27.098Z,92955
2023-03-07T16:48:52.362Z,92954
2023-03-07T16:52:17.561Z,92953
2023-03-07T16:55:42.757Z,92947
2023-03-07T16:59:08.001Z,92950
2023-03-07T17:02:33.317Z,92944
2023-03-07T17:05:58.494Z,92954
2023-03-07T17:09:23.668Z,92949
2023-03-07T17:12:48.856Z,92942
2023-03-07T17:16:14.174Z,92948
2023-03-07T17:19:39.270Z,92951
2023-03-07T17:23:04.523Z,92950
2023-03-07T17:26:29.699Z,92948
2023-03-07T17:29:54.909Z,92948
2023-03-07T17:33:20.141Z,92955
2023-03-07T17:36:45.336Z,92956
2023-03-07T17:40:10.557Z,92964
2023-03-07T17:43:35.728Z,92970
2023-03-07T17:47:00.955Z,92971
2023-03-07T17:50:26.198Z,92978
2023-03-07T17:53:51.411Z,92978
2023-03-07T17:57:16.629Z,92983
2023-03-07T18:00:41.787Z,92977
2023-03-07T18:04:07.021Z,92991
2023-03-07T18:07:32.263Z,92983
2023-03-07T18:10:57.579Z,92990
2023-03-07T18:14:22.959Z,92992
2023-03-07T18:17:49.224Z,92991
2023-03-07T18:21:13.548Z,92997
2023-03-07T18:24:38.894Z,93003
2023-03-07T18:28:04.231Z,92994
2023-03-07T18:31:29.730Z,92989
2023-03-07T18:34:54.982Z,92998
2023-03-07T18:38:20.317Z,92996
2023-03-07T18:41:45.639Z,92986
2023-03-07T18:45:11.036Z,92995
2023-03-07T18:48:36.390Z,92999
2023-03-07T18:52:01.767Z,93005
2023-03-07T18:55:27.091Z,92996
2023-03-07T18:58:52.421Z,92999
2023-03-07T19:02:17.861Z,92995
2023-03-07T19:05:43.167Z,92995
2023-03-07T19:09:08.488Z,92996
2023-03-07T19:12:33.841Z,92991
2023-03-07T19:15:59.172Z,92988
2023-03-07T19:19:24.476Z,92983
2023-03-07T19:22:49.914Z,92987
2023-03-07T19:26:15.296Z,93005
2023-03-07T19:29:40.771Z,93010
2023-03-07T19:33:06.129Z,92996
2023-03-07T19:36:31.443Z,92985
2023-03-07T19:39:56.830Z,92994
2023-03-07T19:43:22.222Z,93002
2023-03-07T19:46:47.541Z,93015
2023-03-07T19:50:12.862Z,93019
2023-03-07T19:53:38.228Z,93013
2023-03-07T19:57:03.573Z,93023
2023-03-07T20:00:28.926Z,93026
2023-03-07T20:03:54.276Z,93031
2023-03-07T20:07:19.658Z,93035
2023-03-07T20:10:45.047Z,93035
2023-03-07T20:14:10.421Z,93021
2023-03-07T20:17:35.723Z,93025
2023-03-07T20:21:01.073Z,93027
2023-03-07T20:24:26.465Z,93024
2023-03-07T20:27:51.739Z,93031
2023-03-07T20:31:17.163Z,93034
2023-03-07T20:34:42.417Z,93034
2023-03-07T20:38:07.756Z,93039
2023-03-07T20:41:33.075Z,93035
2023-03-07T20:44:58.412Z,93042
2023-03-07T20:48:23.773Z,93039
2023-03-07T20:51:49.043Z,93043
2023-03-07T20:55:14.365Z,93057
2023-03-07T20:58:39.661Z,93048
2023-03-07T21:02:04.952Z,93053
2023-03-07T21:05:30.138Z,93050
2023-03-07T21:08:55.302Z,93057
2023-03-07T21:12:20.505Z,93062
2023-03-07T21:15:45.711Z,93050
2023-03-07T21:19:10.913Z,93060
2023-03-07T21:22:36.132Z,93069
2023-03-07T21:26:01.310Z,93062
2023-03-07T21:29:26.523Z,93062
2023-03-07T21:32:51.732Z,93080
2023-03-07T21:36:16.958Z,93076
2023-03-07T21:39:42.202Z,93076
2023-03-07T21:43:07.370Z,93081
2023-03-07T21:46:32.582Z,93083
2023-03-07T21:49:57.779Z,93091
2023-03-07T21:53:22.967Z,93094
2023-03-07T21:56:48.202Z,93100
2023-03-07T22:00:13.394Z,93104
2023-03-07T22:03:38.604Z,93117
2023-03-07T22:07:03.818Z,93117
2023-03-07T22:10:29.000Z,93119
2023-03-07T22:13:54.242Z,93123
2023-03-07T22:17:19.422Z,93134
2023-03-07T22:20:44.603Z,93139
2023-03-07T22:24:09.783Z,93152
2023-03-07T22:27:34.984Z,93146
2023-03-07T22:31:00.194Z,93143
2023-03-07T22:34:25.366Z,93154
2023-03-07T22:37:50.579Z,93162
2023-03-07T22:41:15.819Z,93152
2023-03-07T22:44:41.012Z,93157
2023-03-07T22:48:06.221Z,93159
2023-03-07T22:51:31.389Z,93167
2023-03-07T22:54:56.586Z,93173
2023-03-07T22:58:21.800Z,93167
2023-03-07T23:01:47.007Z,93177
2023-03-07T23:05:12.242Z,93184
2023-03-07T23:08:37.418Z,93175
2023-03-07T23:12:02.632Z,93177
2023-03-07T23:15:27.926Z,93181
2023-03-07T23:18:53.057Z,93180
2023-03-07T23:22:18.279Z,93184
2023-03-07T23:25:43.458Z,93189
2023-03-07T23:29:08.666Z,93185
2023-03-07T23:32:33.946Z,93193
2023-03-07T23:35:59.083Z,93195
2023-03-07T23:39:24.290Z,93196
2023-03-07T23:42:49.452Z,93192
2023-03-07T23:46:14.686Z,93195
2023-03-07T23:49:39.860Z,93199
2023-03-07T23:53:05.050Z,93202
2023-03-07T23:56:30.350Z,93205
2023-03-07T23:59:55.437Z,93220
